sensor_id;sensor_type;location;lat;lon;timestamp;pressure;altitude;pressure_sealevel;temperature;humidity
38912;BME280;28444;48.056;14.408;2023-07-13T00:01:49;97498.28;;;18.59;100.00
38912;BME280;28444;48.056;14.408;2023-07-13T00:04:18;97488.53;;;18.72;100.00
38912;BME280;28444;48.056;14.408;2023-07-13T00:06:46;97481.56;;;18.71;100.00
38912;BME280;28444;48.056;14.408;2023-07-13T00:09:16;97497.34;;;18.68;100.00
38912;BME280;28444;48.056;14.408;2023-07-13T00:11:44;97495.50;;;18.73;100.00
38912;BME280;28444;48.056;14.408;2023-07-13T00:14:14;97499.59;;;18.72;100.00
38912;BME280;28444;48.056;14.408;2023-07-13T00:16:42;97497.66;;;18.74;100.00
38912;BME280;28444;48.056;14.408;2023-07-13T00:19:11;97501.84;;;18.75;100.00
38912;BME280;28444;48.056;14.408;2023-07-13T00:21:39;97505.34;;;18.76;100.00
38912;BME280;28444;48.056;14.408;2023-07-13T00:24:07;97506.69;;;18.75;100.00
38912;BME280;28444;48.056;14.408;2023-07-13T00:26:34;97500.69;;;18.81;100.00
38912;BME280;28444;48.056;14.408;2023-07-13T00:29:01;97485.53;;;18.82;100.00
38912;BME280;28444;48.056;14.408;2023-07-13T00:31:27;97498.75;;;18.83;100.00
38912;BME280;28444;48.056;14.408;2023-07-13T00:33:54;97489.31;;;18.88;100.00
38912;BME280;28444;48.056;14.408;2023-07-13T00:36:21;97487.69;;;18.99;100.00
38912;BME280;28444;48.056;14.408;2023-07-13T00:38:47;97482.06;;;18.97;100.00
38912;BME280;28444;48.056;14.408;2023-07-13T00:41:14;97479.31;;;18.97;100.00
38912;BME280;28444;48.056;14.408;2023-07-13T00:43:41;97485.66;;;18.99;99.82
38912;BME280;28444;48.056;14.408;2023-07-13T00:46:18;97483.41;;;18.96;99.84
38912;BME280;28444;48.056;14.408;2023-07-13T00:48:47;97479.06;;;19.07;100.00
38912;BME280;28444;48.056;14.408;2023-07-13T00:51:19;97479.06;;;19.07;99.90
38912;BME280;28444;48.056;14.408;2023-07-13T00:53:46;97474.41;;;18.95;99.66
38912;BME280;28444;48.056;14.408;2023-07-13T00:56:13;97473.59;;;18.93;99.54
38912;BME280;28444;48.056;14.408;2023-07-13T00:58:40;97469.75;;;19.00;98.97
38912;BME280;28444;48.056;14.408;2023-07-13T01:01:06;97465.00;;;19.03;99.25
38912;BME280;28444;48.056;14.408;2023-07-13T01:03:34;97453.38;;;19.06;99.13
38912;BME280;28444;48.056;14.408;2023-07-13T01:06:01;97469.31;;;19.06;99.18
38912;BME280;28444;48.056;14.408;2023-07-13T01:08:28;97461.53;;;19.02;99.15
38912;BME280;28444;48.056;14.408;2023-07-13T01:10:57;97470.34;;;18.98;99.54
38912;BME280;28444;48.056;14.408;2023-07-13T01:13:25;97470.19;;;18.94;99.07
38912;BME280;28444;48.056;14.408;2023-07-13T01:15:53;97476.53;;;18.97;99.04
38912;BME280;28444;48.056;14.408;2023-07-13T01:18:26;97470.53;;;19.03;99.28
38912;BME280;28444;48.056;14.408;2023-07-13T01:21:02;97474.94;;;19.08;100.00
38912;BME280;28444;48.056;14.408;2023-07-13T01:23:30;97487.56;;;19.11;99.80
38912;BME280;28444;48.056;14.408;2023-07-13T01:25:58;97494.22;;;19.06;100.00
38912;BME280;28444;48.056;14.408;2023-07-13T01:28:26;97491.91;;;19.00;100.00
38912;BME280;28444;48.056;14.408;2023-07-13T01:30:58;97495.44;;;18.87;100.00
38912;BME280;28444;48.056;14.408;2023-07-13T01:33:25;97491.97;;;18.86;100.00
38912;BME280;28444;48.056;14.408;2023-07-13T01:35:52;97497.41;;;18.84;100.00
38912;BME280;28444;48.056;14.408;2023-07-13T01:38:21;97500.16;;;18.84;100.00
38912;BME280;28444;48.056;14.408;2023-07-13T01:40:50;97506.75;;;18.77;100.00
38912;BME280;28444;48.056;14.408;2023-07-13T01:43:17;97517.13;;;18.76;100.00
38912;BME280;28444;48.056;14.408;2023-07-13T01:45:44;97515.81;;;18.78;100.00
38912;BME280;28444;48.056;14.408;2023-07-13T01:48:12;97526.25;;;18.79;100.00
38912;BME280;28444;48.056;14.408;2023-07-13T01:50:39;97523.28;;;18.75;100.00
38912;BME280;28444;48.056;14.408;2023-07-13T01:53:06;97528.41;;;18.67;100.00
38912;BME280;28444;48.056;14.408;2023-07-13T01:55:33;97524.91;;;18.66;100.00
38912;BME280;28444;48.056;14.408;2023-07-13T01:58:01;97532.13;;;18.71;100.00
38912;BME280;28444;48.056;14.408;2023-07-13T02:00:28;97536.09;;;18.68;100.00
38912;BME280;28444;48.056;14.408;2023-07-13T02:02:55;97551.00;;;18.75;100.00
38912;BME280;28444;48.056;14.408;2023-07-13T02:05:22;97563.06;;;18.82;100.00
38912;BME280;28444;48.056;14.408;2023-07-13T02:07:48;97572.69;;;18.81;100.00
38912;BME280;28444;48.056;14.408;2023-07-13T02:10:15;97573.53;;;18.69;100.00
38912;BME280;28444;48.056;14.408;2023-07-13T02:12:42;97575.59;;;18.55;100.00
38912;BME280;28444;48.056;14.408;2023-07-13T02:15:09;97575.50;;;18.53;100.00
38912;BME280;28444;48.056;14.408;2023-07-13T02:17:36;97582.78;;;18.46;100.00
38912;BME280;28444;48.056;14.408;2023-07-13T02:20:04;97576.13;;;18.51;100.00
38912;BME280;28444;48.056;14.408;2023-07-13T02:22:31;97573.06;;;18.45;100.00
38912;BME280;28444;48.056;14.408;2023-07-13T02:24:58;97568.25;;;18.46;100.00
38912;BME280;28444;48.056;14.408;2023-07-13T02:27:25;97569.34;;;18.41;100.00
38912;BME280;28444;48.056;14.408;2023-07-13T02:29:52;97575.00;;;18.43;100.00
38912;BME280;28444;48.056;14.408;2023-07-13T02:32:18;97566.19;;;18.46;100.00
38912;BME280;28444;48.056;14.408;2023-07-13T02:34:45;97554.59;;;18.36;100.00
38912;BME280;28444;48.056;14.408;2023-07-13T02:37:12;97547.00;;;18.37;100.00
38912;BME280;28444;48.056;14.408;2023-07-13T02:39:39;97540.75;;;18.36;100.00
38912;BME280;28444;48.056;14.408;2023-07-13T02:42:06;97543.22;;;18.44;100.00
38912;BME280;28444;48.056;14.408;2023-07-13T02:44:33;97538.19;;;18.40;100.00
38912;BME280;28444;48.056;14.408;2023-07-13T02:46:59;97525.56;;;18.51;100.00
38912;BME280;28444;48.056;14.408;2023-07-13T02:49:26;97521.94;;;18.62;100.00
38912;BME280;28444;48.056;14.408;2023-07-13T02:51:53;97522.38;;;18.57;100.00
38912;BME280;28444;48.056;14.408;2023-07-13T02:54:19;97523.84;;;18.44;100.00
38912;BME280;28444;48.056;14.408;2023-07-13T02:56:46;97511.66;;;18.35;100.00
38912;BME280;28444;48.056;14.408;2023-07-13T02:59:13;97510.38;;;18.09;100.00
38912;BME280;28444;48.056;14.408;2023-07-13T03:01:40;97495.59;;;18.18;100.00
38912;BME280;28444;48.056;14.408;2023-07-13T03:04:07;97495.97;;;18.26;100.00
38912;BME280;28444;48.056;14.408;2023-07-13T03:06:33;97493.94;;;18.26;100.00
38912;BME280;28444;48.056;14.408;2023-07-13T03:09:00;97500.28;;;18.29;100.00
38912;BME280;28444;48.056;14.408;2023-07-13T03:11:27;97504.19;;;18.24;100.00
38912;BME280;28444;48.056;14.408;2023-07-13T03:13:55;97515.25;;;18.24;100.00
38912;BME280;28444;48.056;14.408;2023-07-13T03:16:21;97498.97;;;18.30;100.00
38912;BME280;28444;48.056;14.408;2023-07-13T03:18:48;97498.84;;;18.28;100.00
38912;BME280;28444;48.056;14.408;2023-07-13T03:21:15;97501.09;;;18.32;100.00
38912;BME280;28444;48.056;14.408;2023-07-13T03:23:42;97492.88;;;18.34;100.00
38912;BME280;28444;48.056;14.408;2023-07-13T03:26:15;97499.97;;;18.37;100.00
38912;BME280;28444;48.056;14.408;2023-07-13T03:28:42;97499.69;;;18.31;100.00
38912;BME280;28444;48.056;14.408;2023-07-13T03:31:18;97495.25;;;18.25;100.00
38912;BME280;28444;48.056;14.408;2023-07-13T03:33:46;97498.84;;;18.28;100.00
38912;BME280;28444;48.056;14.408;2023-07-13T03:36:17;97498.16;;;18.27;100.00
38912;BME280;28444;48.056;14.408;2023-07-13T03:38:52;97502.84;;;18.25;100.00
38912;BME280;28444;48.056;14.408;2023-07-13T03:41:20;97506.25;;;18.23;100.00
38912;BME280;28444;48.056;14.408;2023-07-13T03:43:47;97506.97;;;18.24;100.00
38912;BME280;28444;48.056;14.408;2023-07-13T03:46:15;97502.47;;;18.03;100.00
38912;BME280;28444;48.056;14.408;2023-07-13T03:48:44;97513.22;;;18.11;100.00
38912;BME280;28444;48.056;14.408;2023-07-13T03:51:12;97511.69;;;17.94;100.00
38912;BME280;28444;48.056;14.408;2023-07-13T03:53:42;97511.47;;;17.90;100.00
38912;BME280;28444;48.056;14.408;2023-07-13T03:56:09;97505.53;;;17.95;100.00
38912;BME280;28444;48.056;14.408;2023-07-13T03:58:39;97512.81;;;18.02;100.00
38912;BME280;28444;48.056;14.408;2023-07-13T04:01:08;97509.34;;;18.16;100.00
38912;BME280;28444;48.056;14.408;2023-07-13T04:03:35;97509.63;;;18.22;100.00
38912;BME280;28444;48.056;14.408;2023-07-13T04:06:04;97510.63;;;18.28;100.00
38912;BME280;28444;48.056;14.408;2023-07-13T04:08:33;97510.63;;;18.28;100.00
38912;BME280;28444;48.056;14.408;2023-07-13T04:11:00;97516.25;;;18.44;100.00
38912;BME280;28444;48.056;14.408;2023-07-13T04:13:27;97512.56;;;18.53;100.00
38912;BME280;28444;48.056;14.408;2023-07-13T04:15:55;97518.38;;;18.60;100.00
38912;BME280;28444;48.056;14.408;2023-07-13T04:18:22;97521.94;;;18.62;100.00
38912;BME280;28444;48.056;14.408;2023-07-13T04:20:50;97521.53;;;18.68;100.00
38912;BME280;28444;48.056;14.408;2023-07-13T04:23:17;97527.06;;;18.68;100.00
38912;BME280;28444;48.056;14.408;2023-07-13T04:25:48;97535.28;;;18.66;100.00
38912;BME280;28444;48.056;14.408;2023-07-13T04:28:23;97526.88;;;18.64;100.00
38912;BME280;28444;48.056;14.408;2023-07-13T04:30:50;97523.72;;;18.56;100.00
38912;BME280;28444;48.056;14.408;2023-07-13T04:33:18;97517.75;;;18.61;100.00
38912;BME280;28444;48.056;14.408;2023-07-13T04:35:53;97528.22;;;18.63;100.00
38912;BME280;28444;48.056;14.408;2023-07-13T04:38:21;97529.75;;;18.66;100.00
38912;BME280;28444;48.056;14.408;2023-07-13T04:40:47;97533.22;;;18.66;100.00
38912;BME280;28444;48.056;14.408;2023-07-13T04:43:14;97529.47;;;18.60;100.00
38912;BME280;28444;48.056;14.408;2023-07-13T04:45:41;97529.53;;;18.62;100.00
38912;BME280;28444;48.056;14.408;2023-07-13T04:48:07;97529.03;;;18.65;100.00
38912;BME280;28444;48.056;14.408;2023-07-13T04:50:37;97509.97;;;18.71;100.00
38912;BME280;28444;48.056;14.408;2023-07-13T04:53:04;97514.66;;;18.69;100.00
38912;BME280;28444;48.056;14.408;2023-07-13T04:55:31;97512.75;;;18.71;100.00
38912;BME280;28444;48.056;14.408;2023-07-13T04:57:58;97510.88;;;18.76;100.00
38912;BME280;28444;48.056;14.408;2023-07-13T05:00:26;97506.16;;;18.79;100.00
38912;BME280;28444;48.056;14.408;2023-07-13T05:02:55;97513.63;;;18.76;100.00
38912;BME280;28444;48.056;14.408;2023-07-13T05:05:23;97512.50;;;18.81;100.00
38912;BME280;28444;48.056;14.408;2023-07-13T05:07:49;97515.06;;;18.77;100.00
38912;BME280;28444;48.056;14.408;2023-07-13T05:10:16;97513.94;;;18.82;100.00
38912;BME280;28444;48.056;14.408;2023-07-13T05:12:43;97517.91;;;18.93;100.00
38912;BME280;28444;48.056;14.408;2023-07-13T05:15:10;97529.88;;;18.97;100.00
38912;BME280;28444;48.056;14.408;2023-07-13T05:17:36;97525.50;;;18.92;100.00
38912;BME280;28444;48.056;14.408;2023-07-13T05:20:06;97516.19;;;18.86;100.00
38912;BME280;28444;48.056;14.408;2023-07-13T05:22:33;97524.16;;;18.93;100.00
38912;BME280;28444;48.056;14.408;2023-07-13T05:25:04;97527.88;;;18.84;100.00
38912;BME280;28444;48.056;14.408;2023-07-13T05:27:31;97526.81;;;18.91;100.00
38912;BME280;28444;48.056;14.408;2023-07-13T05:29:57;97528.28;;;18.92;100.00
38912;BME280;28444;48.056;14.408;2023-07-13T05:32:24;97531.66;;;18.91;100.00
38912;BME280;28444;48.056;14.408;2023-07-13T05:34:51;97533.81;;;18.92;100.00
38912;BME280;28444;48.056;14.408;2023-07-13T05:37:18;97539.91;;;19.05;100.00
38912;BME280;28444;48.056;14.408;2023-07-13T05:39:44;97534.38;;;19.05;100.00
38912;BME280;28444;48.056;14.408;2023-07-13T05:42:11;97542.88;;;19.09;100.00
38912;BME280;28444;48.056;14.408;2023-07-13T05:44:37;97535.97;;;19.10;100.00
38912;BME280;28444;48.056;14.408;2023-07-13T05:47:04;97546.31;;;19.23;100.00
38912;BME280;28444;48.056;14.408;2023-07-13T05:49:32;97548.06;;;19.16;100.00
38912;BME280;28444;48.056;14.408;2023-07-13T05:51:59;97558.63;;;19.20;100.00
38912;BME280;28444;48.056;14.408;2023-07-13T05:54:26;97545.59;;;19.22;100.00
38912;BME280;28444;48.056;14.408;2023-07-13T05:56:53;97547.94;;;19.28;100.00
38912;BME280;28444;48.056;14.408;2023-07-13T05:59:20;97547.59;;;19.36;100.00
38912;BME280;28444;48.056;14.408;2023-07-13T06:01:46;97549.34;;;19.29;100.00
38912;BME280;28444;48.056;14.408;2023-07-13T06:04:13;97548.69;;;19.15;100.00
38912;BME280;28444;48.056;14.408;2023-07-13T06:06:40;97551.56;;;19.17;100.00
38912;BME280;28444;48.056;14.408;2023-07-13T06:09:06;97553.78;;;19.20;100.00
38912;BME280;28444;48.056;14.408;2023-07-13T06:11:33;97566.16;;;19.17;100.00
38912;BME280;28444;48.056;14.408;2023-07-13T06:14:01;97569.66;;;19.34;100.00
38912;BME280;28444;48.056;14.408;2023-07-13T06:16:28;97574.84;;;19.41;100.00
38912;BME280;28444;48.056;14.408;2023-07-13T06:18:54;97573.38;;;19.54;100.00
38912;BME280;28444;48.056;14.408;2023-07-13T06:21:22;97577.13;;;19.61;100.00
38912;BME280;28444;48.056;14.408;2023-07-13T06:23:50;97582.28;;;19.53;100.00
38912;BME280;28444;48.056;14.408;2023-07-13T06:26:19;97587.59;;;19.46;100.00
38912;BME280;28444;48.056;14.408;2023-07-13T06:28:47;97583.53;;;19.49;100.00
38912;BME280;28444;48.056;14.408;2023-07-13T06:31:14;97588.13;;;19.59;100.00
38912;BME280;28444;48.056;14.408;2023-07-13T06:33:42;97593.44;;;19.68;100.00
38912;BME280;28444;48.056;14.408;2023-07-13T06:36:10;97587.09;;;19.66;100.00
38912;BME280;28444;48.056;14.408;2023-07-13T06:38:37;97602.56;;;19.71;100.00
38912;BME280;28444;48.056;14.408;2023-07-13T06:41:06;97599.53;;;19.65;100.00
38912;BME280;28444;48.056;14.408;2023-07-13T06:43:33;97594.59;;;19.63;100.00
38912;BME280;28444;48.056;14.408;2023-07-13T06:46:00;97602.84;;;19.77;100.00
38912;BME280;28444;48.056;14.408;2023-07-13T06:48:27;97603.72;;;19.82;99.98
38912;BME280;28444;48.056;14.408;2023-07-13T06:50:54;97601.59;;;19.80;99.66
38912;BME280;28444;48.056;14.408;2023-07-13T06:53:21;97609.22;;;19.80;99.78
38912;BME280;28444;48.056;14.408;2023-07-13T06:55:49;97612.50;;;19.92;99.97
38912;BME280;28444;48.056;14.408;2023-07-13T06:58:18;97610.19;;;19.86;98.95
38912;BME280;28444;48.056;14.408;2023-07-13T07:00:45;97624.25;;;19.90;99.62
38912;BME280;28444;48.056;14.408;2023-07-13T07:03:12;97628.63;;;19.95;99.82
38912;BME280;28444;48.056;14.408;2023-07-13T07:05:39;97630.06;;;19.96;99.16
38912;BME280;28444;48.056;14.408;2023-07-13T07:08:06;97629.16;;;20.08;99.82
38912;BME280;28444;48.056;14.408;2023-07-13T07:10:33;97631.13;;;20.21;99.11
38912;BME280;28444;48.056;14.408;2023-07-13T07:13:00;97631.06;;;20.19;98.52
38912;BME280;28444;48.056;14.408;2023-07-13T07:15:27;97635.25;;;20.20;97.45
38912;BME280;28444;48.056;14.408;2023-07-13T07:17:54;97638.72;;;20.36;97.75
38912;BME280;28444;48.056;14.408;2023-07-13T07:20:21;97631.75;;;20.35;95.81
38912;BME280;28444;48.056;14.408;2023-07-13T07:22:48;97632.19;;;20.46;94.68
38912;BME280;28444;48.056;14.408;2023-07-13T07:25:15;97633.25;;;20.70;94.41
38912;BME280;28444;48.056;14.408;2023-07-13T07:27:42;97635.84;;;21.00;93.12
38912;BME280;28444;48.056;14.408;2023-07-13T07:30:12;97632.28;;;21.15;91.01
38912;BME280;28444;48.056;14.408;2023-07-13T07:32:41;97635.38;;;21.23;90.38
38912;BME280;28444;48.056;14.408;2023-07-13T07:35:23;97648.44;;;21.36;88.53
38912;BME280;28444;48.056;14.408;2023-07-13T07:37:50;97643.88;;;21.27;89.20
38912;BME280;28444;48.056;14.408;2023-07-13T07:40:17;97643.72;;;21.23;88.35
38912;BME280;28444;48.056;14.408;2023-07-13T07:42:47;97643.31;;;21.31;89.51
38912;BME280;28444;48.056;14.408;2023-07-13T07:45:14;97634.13;;;21.62;88.84
38912;BME280;28444;48.056;14.408;2023-07-13T07:47:41;97636.38;;;21.85;87.96
38912;BME280;28444;48.056;14.408;2023-07-13T07:50:08;97633.41;;;21.99;87.79
38912;BME280;28444;48.056;14.408;2023-07-13T07:52:35;97634.25;;;22.04;87.27
38912;BME280;28444;48.056;14.408;2023-07-13T07:55:05;97639.78;;;22.02;86.49
38912;BME280;28444;48.056;14.408;2023-07-13T07:57:35;97649.16;;;21.93;86.22
38912;BME280;28444;48.056;14.408;2023-07-13T08:00:05;97649.41;;;21.99;85.30
38912;BME280;28444;48.056;14.408;2023-07-13T08:02:35;97654.25;;;22.16;84.67
38912;BME280;28444;48.056;14.408;2023-07-13T08:05:04;97652.03;;;21.95;85.33
38912;BME280;28444;48.056;14.408;2023-07-13T08:07:34;97652.09;;;21.97;84.37
38912;BME280;28444;48.056;14.408;2023-07-13T08:10:01;97652.41;;;22.05;86.00
38912;BME280;28444;48.056;14.408;2023-07-13T08:12:27;97654.28;;;22.18;85.26
38912;BME280;28444;48.056;14.408;2023-07-13T08:14:57;97654.16;;;21.96;84.01
38912;BME280;28444;48.056;14.408;2023-07-13T08:17:24;97661.31;;;22.19;83.66
38912;BME280;28444;48.056;14.408;2023-07-13T08:19:52;97658.72;;;22.25;83.07
38912;BME280;28444;48.056;14.408;2023-07-13T08:22:18;97665.97;;;22.52;83.24
38912;BME280;28444;48.056;14.408;2023-07-13T08:24:45;97660.41;;;22.52;83.73
38912;BME280;28444;48.056;14.408;2023-07-13T08:27:13;97661.31;;;22.59;80.14
38912;BME280;28444;48.056;14.408;2023-07-13T08:29:40;97667.59;;;22.59;79.82
38912;BME280;28444;48.056;14.408;2023-07-13T08:32:07;97671.53;;;22.52;79.85
38912;BME280;28444;48.056;14.408;2023-07-13T08:34:36;97672.47;;;22.59;78.06
38912;BME280;28444;48.056;14.408;2023-07-13T08:37:03;97680.47;;;22.49;79.89
38912;BME280;28444;48.056;14.408;2023-07-13T08:39:30;97679.53;;;22.42;80.96
38912;BME280;28444;48.056;14.408;2023-07-13T08:42:26;97691.09;;;22.34;81.23
38912;BME280;28444;48.056;14.408;2023-07-13T08:45:22;97687.47;;;22.50;80.92
38912;BME280;28444;48.056;14.408;2023-07-13T08:47:57;97682.59;;;22.30;81.42
38912;BME280;28444;48.056;14.408;2023-07-13T08:50:30;97686.66;;;22.47;81.67
38912;BME280;28444;48.056;14.408;2023-07-13T08:53:13;97673.31;;;22.64;79.63
38912;BME280;28444;48.056;14.408;2023-07-13T08:55:41;97685.31;;;22.68;79.33
38912;BME280;28444;48.056;14.408;2023-07-13T08:58:11;97689.19;;;22.59;79.26
38912;BME280;28444;48.056;14.408;2023-07-13T09:00:58;97692.25;;;22.67;79.74
38912;BME280;28444;48.056;14.408;2023-07-13T09:03:31;97695.09;;;22.69;80.05
38912;BME280;28444;48.056;14.408;2023-07-13T09:06:02;97703.59;;;22.73;78.53
38912;BME280;28444;48.056;14.408;2023-07-13T09:08:56;97706.44;;;22.75;79.09
38912;BME280;28444;48.056;14.408;2023-07-13T09:14:29;97705.03;;;22.74;77.85
38912;BME280;28444;48.056;14.408;2023-07-13T09:17:03;97700.53;;;22.65;77.04
38912;BME280;28444;48.056;14.408;2023-07-13T09:19:32;97706.22;;;22.89;76.33
38912;BME280;28444;48.056;14.408;2023-07-13T09:22:03;97711.31;;;22.75;78.05
38912;BME280;28444;48.056;14.408;2023-07-13T09:27:27;97713.81;;;22.87;76.81
38912;BME280;28444;48.056;14.408;2023-07-13T09:32:43;97725.53;;;22.83;76.56
38912;BME280;28444;48.056;14.408;2023-07-13T09:35:17;97729.41;;;22.94;75.90
38912;BME280;28444;48.056;14.408;2023-07-13T09:37:45;97733.03;;;23.18;75.41
38912;BME280;28444;48.056;14.408;2023-07-13T09:40:30;97725.72;;;23.09;75.49
38912;BME280;28444;48.056;14.408;2023-07-13T09:42:59;97727.75;;;23.06;74.92
38912;BME280;28444;48.056;14.408;2023-07-13T09:45:28;97731.41;;;23.33;74.26
38912;BME280;28444;48.056;14.408;2023-07-13T09:47:59;97732.47;;;23.44;74.52
38912;BME280;28444;48.056;14.408;2023-07-13T09:50:30;97736.78;;;23.69;73.18
38912;BME280;28444;48.056;14.408;2023-07-13T09:52:56;97731.91;;;23.69;72.48
38912;BME280;28444;48.056;14.408;2023-07-13T09:57:58;97729.41;;;23.36;75.51
38912;BME280;28444;48.056;14.408;2023-07-13T10:00:29;97728.19;;;23.41;73.78
38912;BME280;28444;48.056;14.408;2023-07-13T10:03:51;97732.53;;;23.46;73.51
38912;BME280;28444;48.056;14.408;2023-07-13T10:05:51;97735.59;;;23.54;71.01
38912;BME280;28444;48.056;14.408;2023-07-13T10:08:28;97727.09;;;23.50;69.92
38912;BME280;28444;48.056;14.408;2023-07-13T10:11:01;97718.44;;;23.42;72.57
38912;BME280;28444;48.056;14.408;2023-07-13T10:13:37;97725.47;;;23.43;71.96
38912;BME280;28444;48.056;14.408;2023-07-13T10:16:05;97719.47;;;23.30;71.90
38912;BME280;28444;48.056;14.408;2023-07-13T10:18:43;97719.69;;;23.37;70.69
38912;BME280;28444;48.056;14.408;2023-07-13T10:21:17;97724.28;;;23.50;70.75
38912;BME280;28444;48.056;14.408;2023-07-13T10:23:53;97732.19;;;23.36;71.61
38912;BME280;28444;48.056;14.408;2023-07-13T10:26:26;97728.16;;;23.19;72.85
38912;BME280;28444;48.056;14.408;2023-07-13T10:28:57;97719.31;;;23.04;71.84
38912;BME280;28444;48.056;14.408;2023-07-13T10:31:25;97715.94;;;23.08;73.37
38912;BME280;28444;48.056;14.408;2023-07-13T10:33:52;97718.38;;;23.18;74.10
38912;BME280;28444;48.056;14.408;2023-07-13T10:36:32;97724.72;;;23.20;75.00
38912;BME280;28444;48.056;14.408;2023-07-13T10:39:03;97729.00;;;23.23;70.24
38912;BME280;28444;48.056;14.408;2023-07-13T10:41:33;97727.06;;;23.28;68.28
38912;BME280;28444;48.056;14.408;2023-07-13T10:44:01;97730.72;;;23.13;68.63
38912;BME280;28444;48.056;14.408;2023-07-13T10:46:30;97730.81;;;23.15;67.71
38912;BME280;28444;48.056;14.408;2023-07-13T10:49:03;97731.97;;;23.08;66.83
38912;BME280;28444;48.056;14.408;2023-07-13T10:51:31;97733.13;;;23.00;68.36
38912;BME280;28444;48.056;14.408;2023-07-13T10:57:19;97751.88;;;23.20;68.57
38912;BME280;28444;48.056;14.408;2023-07-13T11:00:17;97749.03;;;23.18;70.66
38912;BME280;28444;48.056;14.408;2023-07-13T11:03:01;97746.59;;;23.28;68.65
38912;BME280;28444;48.056;14.408;2023-07-13T11:05:32;97748.84;;;23.34;68.24
38912;BME280;28444;48.056;14.408;2023-07-13T11:08:32;97747.91;;;23.47;67.14
38912;BME280;28444;48.056;14.408;2023-07-13T11:11:00;97744.13;;;23.38;67.36
38912;BME280;28444;48.056;14.408;2023-07-13T11:13:56;97743.53;;;23.20;66.27
38912;BME280;28444;48.056;14.408;2023-07-13T11:21:21;97732.09;;;23.12;66.92
38912;BME280;28444;48.056;14.408;2023-07-13T11:26:50;97718.63;;;23.26;65.46
38912;BME280;28444;48.056;14.408;2023-07-13T11:34:50;97729.75;;;23.04;67.71
38912;BME280;28444;48.056;14.408;2023-07-13T11:37:18;97737.22;;;23.19;64.06
38912;BME280;28444;48.056;14.408;2023-07-13T11:39:46;97726.75;;;22.98;64.00
38912;BME280;28444;48.056;14.408;2023-07-13T11:42:17;97729.41;;;22.94;62.00
38912;BME280;28444;48.056;14.408;2023-07-13T11:44:46;97735.13;;;22.98;61.17
38912;BME280;28444;48.056;14.408;2023-07-13T11:47:33;97728.03;;;22.95;61.75
38912;BME280;28444;48.056;14.408;2023-07-13T11:50:00;97732.56;;;23.26;62.16
38912;BME280;28444;48.056;14.408;2023-07-13T11:52:32;97725.50;;;23.45;61.62
38912;BME280;28444;48.056;14.408;2023-07-13T11:55:02;97718.50;;;23.44;61.11
38912;BME280;28444;48.056;14.408;2023-07-13T11:57:31;97725.59;;;23.47;61.35
38912;BME280;28444;48.056;14.408;2023-07-13T12:00:11;97712.56;;;23.53;61.74
38912;BME280;28444;48.056;14.408;2023-07-13T12:02:41;97711.91;;;23.77;63.25
38912;BME280;28444;48.056;14.408;2023-07-13T12:05:14;97717.09;;;23.87;61.82
38912;BME280;28444;48.056;14.408;2023-07-13T12:07:42;97714.47;;;23.49;60.64
38912;BME280;28444;48.056;14.408;2023-07-13T12:12:36;97705.22;;;23.64;64.06
38912;BME280;28444;48.056;14.408;2023-07-13T12:15:07;97711.19;;;23.76;61.97
38912;BME280;28444;48.056;14.408;2023-07-13T12:17:34;97712.03;;;23.81;62.41
38912;BME280;28444;48.056;14.408;2023-07-13T12:20:12;97705.59;;;23.76;62.10
38912;BME280;28444;48.056;14.408;2023-07-13T12:22:48;97713.19;;;23.74;61.61
38912;BME280;28444;48.056;14.408;2023-07-13T12:25:15;97712.69;;;23.58;61.68
38912;BME280;28444;48.056;14.408;2023-07-13T12:27:50;97707.66;;;23.10;62.66
38912;BME280;28444;48.056;14.408;2023-07-13T12:30:22;97707.59;;;22.88;64.47
38912;BME280;28444;48.056;14.408;2023-07-13T12:32:57;97709.84;;;22.92;65.26
38912;BME280;28444;48.056;14.408;2023-07-13T12:35:26;97702.94;;;22.95;65.23
38912;BME280;28444;48.056;14.408;2023-07-13T12:37:57;97707.91;;;22.96;66.16
38912;BME280;28444;48.056;14.408;2023-07-13T12:40:34;97706.94;;;22.90;67.02
38912;BME280;28444;48.056;14.408;2023-07-13T12:43:03;97708.22;;;22.87;69.09
38912;BME280;28444;48.056;14.408;2023-07-13T12:45:30;97698.59;;;22.90;69.93
38912;BME280;28444;48.056;14.408;2023-07-13T12:48:14;97700.81;;;22.93;70.32
38912;BME280;28444;48.056;14.408;2023-07-13T12:50:43;97695.53;;;22.81;71.32
38912;BME280;28444;48.056;14.408;2023-07-13T12:53:16;97690.56;;;22.80;71.08
38912;BME280;28444;48.056;14.408;2023-07-13T12:58:40;97690.66;;;23.02;71.89
38912;BME280;28444;48.056;14.408;2023-07-13T13:01:14;97686.66;;;23.07;70.27
38912;BME280;28444;48.056;14.408;2023-07-13T13:03:47;97684.78;;;23.14;70.06
38912;BME280;28444;48.056;14.408;2023-07-13T13:08:43;97686.06;;;22.91;68.37
38912;BME280;28444;48.056;14.408;2023-07-13T13:11:10;97686.59;;;22.65;69.08
38912;BME280;28444;48.056;14.408;2023-07-13T13:13:36;97686.88;;;22.53;69.77
38912;BME280;28444;48.056;14.408;2023-07-13T13:16:16;97690.81;;;22.46;70.74
38912;BME280;28444;48.056;14.408;2023-07-13T13:18:43;97684.53;;;22.46;70.06
38912;BME280;28444;48.056;14.408;2023-07-13T13:21:10;97690.00;;;22.44;70.22
38912;BME280;28444;48.056;14.408;2023-07-13T13:23:37;97700.31;;;22.59;69.36
38912;BME280;28444;48.056;14.408;2023-07-13T13:26:09;97686.75;;;22.49;69.34
38912;BME280;28444;48.056;14.408;2023-07-13T13:28:37;97692.53;;;22.55;69.51
38912;BME280;28444;48.056;14.408;2023-07-13T13:31:03;97690.31;;;22.52;69.08
38912;BME280;28444;48.056;14.408;2023-07-13T13:33:30;97687.53;;;22.72;69.12